Time;durP1;ratioP1;P1;durP2;ratioP2;P2;SDS_P1;SDS_P2;PMS_P1;PMS_P2;Temp;Humidity;BMP_temperature;BMP_pressure;BME280_temperature;BME280_humidity;BME280_pressure;Samples;Min_cycle;Max_cycle;Signal;HPM_P1;HPM_P2
2021/06/05 00:00:17;;;;;;;8.75;3.95;;;16.70;61.30;;;;;;5054032;28;20028;-81
2021/06/05 00:02:43;;;;;;;13.80;5.47;;;16.70;61.40;;;;;;5052499;28;20044;-81
2021/06/05 00:05:10;;;;;;;11.15;5.05;;;16.70;61.40;;;;;;5055401;28;20052;-81
2021/06/05 00:07:35;;;;;;;10.55;5.28;;;16.70;61.70;;;;;;5071038;28;20017;-81
2021/06/05 00:10:03;;;;;;;9.85;4.85;;;16.70;61.80;;;;;;5074469;28;20091;-82
2021/06/05 00:12:29;;;;;;;6.18;4.70;;;16.60;61.80;;;;;;5058779;28;20032;-81
2021/06/05 00:14:56;;;;;;;11.02;5.18;;;16.60;61.90;;;;;;5057411;28;20106;-82
2021/06/05 00:17:23;;;;;;;10.60;4.65;;;16.60;62.00;;;;;;5057029;28;20498;-82
2021/06/05 00:19:48;;;;;;;11.52;4.90;;;16.60;62.00;;;;;;5057203;28;20024;-77
2021/06/05 00:22:14;;;;;;;16.10;5.25;;;16.50;62.10;;;;;;5055580;28;20428;-76
2021/06/05 00:24:41;;;;;;;7.82;5.00;;;16.50;62.30;;;;;;5054238;28;20032;-75
2021/06/05 00:27:07;;;;;;;16.55;4.75;;;16.50;62.40;;;;;;5055580;28;20491;-76
2021/06/05 00:29:32;;;;;;;11.57;4.75;;;16.50;62.60;;;;;;5055317;28;20049;-75
2021/06/05 00:31:59;;;;;;;9.02;5.10;;;16.40;62.80;;;;;;5055465;28;20021;-75
2021/06/05 00:34:24;;;;;;;9.77;5.07;;;16.40;63.00;;;;;;5054256;28;20459;-75
2021/06/05 00:36:50;;;;;;;10.85;4.88;;;16.30;63.20;;;;;;5055398;28;20025;-75
2021/06/05 00:39:16;;;;;;;11.10;4.80;;;16.30;63.30;;;;;;5055314;28;20049;-75
2021/06/05 00:41:43;;;;;;;14.35;5.60;;;16.30;63.50;;;;;;5054006;28;20092;-75
2021/06/05 00:44:11;;;;;;;18.65;5.47;;;16.30;63.70;;;;;;5054093;28;20422;-75
2021/06/05 00:46:37;;;;;;;10.75;4.72;;;16.30;63.80;;;;;;5055540;28;20029;-75
2021/06/05 00:49:06;;;;;;;11.38;5.05;;;16.20;63.70;;;;;;5055908;28;20036;-75
2021/06/05 00:51:39;;;;;;;12.02;4.95;;;16.20;63.90;;;;;;5053886;28;20021;-75
2021/06/05 00:54:08;;;;;;;8.38;4.43;;;16.20;64.10;;;;;;5055221;28;20036;-75
2021/06/05 00:56:34;;;;;;;11.07;4.95;;;16.10;64.20;;;;;;5053711;28;20036;-76
2021/06/05 00:59:00;;;;;;;9.13;4.60;;;16.10;64.40;;;;;;5054945;28;20044;-76
2021/06/05 01:01:28;;;;;;;10.63;4.43;;;16.10;64.40;;;;;;5054836;28;20056;-76
2021/06/05 01:03:54;;;;;;;7.72;4.68;;;16.10;64.60;;;;;;5055053;28;20032;-76
2021/06/05 01:06:42;;;;;;;11.90;5.80;;;16.00;64.60;;;;;;5055046;28;20033;-76
2021/06/05 01:09:16;;;;;;;11.85;5.00;;;16.00;65.00;;;;;;5053601;28;20029;-75
2021/06/05 01:12:04;;;;;;;9.75;5.10;;;16.00;65.00;;;;;;5053598;28;20028;-76
2021/06/05 01:14:44;;;;;;;8.82;4.82;;;15.90;65.10;;;;;;5054732;28;20017;-76
2021/06/05 01:17:19;;;;;;;14.98;4.85;;;15.80;65.30;;;;;;5053119;28;20033;-76
2021/06/05 01:19:44;;;;;;;13.98;5.43;;;15.80;65.50;;;;;;5056424;28;20032;-77
2021/06/05 01:22:27;;;;;;;10.70;5.55;;;15.70;65.60;;;;;;5054669;28;20041;-77
2021/06/05 01:25:01;;;;;;;9.98;5.50;;;15.70;66.00;;;;;;5055544;28;20367;-77
2021/06/05 01:27:30;;;;;;;12.50;5.03;;;15.70;66.10;;;;;;5053609;28;20028;-77
2021/06/05 01:29:59;;;;;;;8.32;5.13;;;15.60;66.20;;;;;;5054779;28;20048;-77
2021/06/05 01:32:27;;;;;;;13.32;5.68;;;15.60;66.30;;;;;;5053503;28;20111;-76
2021/06/05 01:34:56;;;;;;;8.00;5.00;;;15.60;66.40;;;;;;5054556;28;20031;-75
2021/06/05 01:37:23;;;;;;;15.43;5.68;;;15.60;66.60;;;;;;5053197;28;20028;-75
2021/06/05 01:39:51;;;;;;;13.20;5.60;;;15.60;66.80;;;;;;5054362;28;20100;-75
2021/06/05 01:42:28;;;;;;;17.08;6.32;;;15.50;67.00;;;;;;5054726;28;20052;-75
2021/06/05 01:44:56;;;;;;;13.73;5.82;;;15.50;67.20;;;;;;5054610;28;20033;-76
2021/06/05 01:47:23;;;;;;;20.55;6.80;;;15.50;67.30;;;;;;5053933;28;20383;-76
2021/06/05 01:49:49;;;;;;;13.52;5.78;;;15.60;67.40;;;;;;5054858;28;20017;-76
2021/06/05 01:52:21;;;;;;;18.48;5.53;;;15.50;67.50;;;;;;5054336;28;20079;-76
2021/06/05 01:55:05;;;;;;;12.57;5.45;;;15.60;67.60;;;;;;5054326;28;20025;-76
2021/06/05 01:57:33;;;;;;;14.82;6.13;;;15.60;67.60;;;;;;5059415;28;20048;-83
2021/06/05 01:59:59;;;;;;;11.38;5.32;;;15.60;67.70;;;;;;5056193;28;20032;-85
2021/06/05 02:02:25;;;;;;;13.75;6.10;;;15.60;67.70;;;;;;5058273;28;20525;-84
2021/06/05 02:04:52;;;;;;;11.63;5.63;;;15.60;67.80;;;;;;5055977;28;20056;-84
2021/06/05 02:07:18;;;;;;;12.68;5.38;;;15.60;67.90;;;;;;5056111;28;20422;-83
2021/06/05 02:09:44;;;;;;;18.25;6.20;;;15.70;68.00;;;;;;5054598;28;20033;-84
2021/06/05 02:12:27;;;;;;;10.20;5.55;;;15.70;68.10;;;;;;5056241;28;20040;-84
2021/06/05 02:14:59;;;;;;;9.20;5.63;;;15.80;68.30;;;;;;5054219;28;20559;-84
2021/06/05 02:17:28;;;;;;;15.38;5.80;;;16.00;68.20;;;;;;5055275;28;20468;-84
2021/06/05 02:19:58;;;;;;;14.27;5.75;;;16.20;68.00;;;;;;5054688;28;20533;-82
2021/06/05 02:22:28;;;;;;;14.68;5.63;;;16.30;67.40;;;;;;5054620;28;20063;-81
2021/06/05 02:24:58;;;;;;;12.45;5.68;;;16.40;67.00;;;;;;5054532;28;20029;-81
2021/06/05 02:27:26;;;;;;;18.83;5.50;;;16.40;66.80;;;;;;5053115;28;20476;-81
2021/06/05 02:29:54;;;;;;;13.68;5.90;;;16.40;66.80;;;;;;5055773;28;20049;-80
2021/06/05 02:32:24;;;;;;;10.27;5.90;;;16.40;66.80;;;;;;5073744;28;20031;-81
2021/06/05 02:34:52;;;;;;;13.07;5.18;;;16.30;66.90;;;;;;5062562;28;20040;-81
2021/06/05 02:37:22;;;;;;;9.90;5.32;;;16.40;67.10;;;;;;5055172;28;20108;-82
2021/06/05 02:39:48;;;;;;;12.80;5.80;;;16.30;67.20;;;;;;5054261;28;20027;-82
2021/06/05 02:42:19;;;;;;;11.27;5.35;;;16.30;67.30;;;;;;5054111;28;20096;-81
2021/06/05 02:44:53;;;;;;;13.55;6.85;;;16.30;67.30;;;;;;5054071;28;20025;-81
2021/06/05 02:47:21;;;;;;;9.98;5.90;;;16.40;67.40;;;;;;5052717;28;20078;-81
2021/06/05 02:49:47;;;;;;;13.52;6.35;;;16.40;67.50;;;;;;5053710;28;20032;-81
2021/06/05 02:52:31;;;;;;;21.42;6.50;;;16.40;67.50;;;;;;5053245;28;20082;-81
2021/06/05 02:55:10;;;;;;;15.15;6.20;;;16.50;67.60;;;;;;5053609;28;20840;-81
2021/06/05 02:57:37;;;;;;;13.43;5.50;;;16.60;67.60;;;;;;5053600;28;20024;-81
2021/06/05 03:00:12;;;;;;;13.20;5.45;;;16.60;67.50;;;;;;5053949;28;20021;-81
2021/06/05 03:02:37;;;;;;;10.98;5.88;;;16.70;67.40;;;;;;5055227;28;20029;-82
2021/06/05 03:05:06;;;;;;;13.73;5.93;;;16.80;67.20;;;;;;5054112;28;20075;-82
2021/06/05 03:07:31;;;;;;;16.02;6.15;;;17.00;67.20;;;;;;5056606;28;20434;-80
2021/06/05 03:09:57;;;;;;;12.38;5.45;;;17.10;66.90;;;;;;5057089;28;20115;-80
2021/06/05 03:12:24;;;;;;;19.35;6.22;;;17.20;66.80;;;;;;5057660;28;20374;-80
2021/06/05 03:14:50;;;;;;;17.67;5.57;;;17.40;66.70;;;;;;5060159;28;20017;-80
2021/06/05 03:17:16;;;;;;;13.45;5.53;;;17.50;66.50;;;;;;5058522;28;20027;-81
2021/06/05 03:19:43;;;;;;;14.32;6.10;;;17.70;66.20;;;;;;5056045;28;20096;-81
2021/06/05 03:22:08;;;;;;;11.15;5.38;;;17.80;65.80;;;;;;5054174;28;20025;-81
2021/06/05 03:24:34;;;;;;;11.90;4.82;;;17.90;65.40;;;;;;5054167;28;20023;-81
2021/06/05 03:27:00;;;;;;;16.90;6.28;;;18.10;65.30;;;;;;5052569;28;20112;-81
2021/06/05 03:29:27;;;;;;;9.55;6.20;;;18.30;65.10;;;;;;5054100;28;20040;-85
2021/06/05 03:31:53;;;;;;;14.07;6.03;;;18.50;64.80;;;;;;5052720;28;20037;-86
2021/06/05 03:34:18;;;;;;;13.90;5.88;;;18.70;64.40;;;;;;5054692;28;20087;-86
2021/06/05 03:36:44;;;;;;;14.98;6.10;;;18.90;64.00;;;;;;5053850;28;20052;-86
2021/06/05 03:39:10;;;;;;;16.08;5.70;;;19.10;63.70;;;;;;5052483;28;20028;-86
2021/06/05 03:41:37;;;;;;;14.88;5.60;;;19.20;63.30;;;;;;5059375;28;20032;-85
2021/06/05 03:44:04;;;;;;;10.20;5.78;;;19.40;63.10;;;;;;5061387;28;20033;-76
2021/06/05 03:46:30;;;;;;;11.65;6.43;;;19.60;62.80;;;;;;5052387;28;20531;-76
2021/06/05 03:48:56;;;;;;;13.45;5.95;;;19.80;62.30;;;;;;5052449;28;20040;-76
2021/06/05 03:51:22;;;;;;;11.43;5.50;;;19.90;62.00;;;;;;5050553;28;20021;-77
2021/06/05 03:53:48;;;;;;;12.73;5.40;;;20.20;61.60;;;;;;5052126;28;20036;-77
2021/06/05 03:56:14;;;;;;;9.20;5.10;;;20.40;61.80;;;;;;5050529;28;20033;-77
2021/06/05 03:58:43;;;;;;;10.07;5.90;;;20.50;60.70;;;;;;5051888;28;20052;-76
2021/06/05 04:01:29;;;;;;;12.18;6.05;;;20.70;60.20;;;;;;5051730;28;20036;-76
2021/06/05 04:03:55;;;;;;;11.32;6.38;;;20.80;59.80;;;;;;5051832;28;20689;-76
2021/06/05 04:06:23;;;;;;;9.20;6.10;;;20.90;59.60;;;;;;5052006;28;20025;-77
2021/06/05 04:08:50;;;;;;;17.55;6.43;;;20.90;59.30;;;;;;5050666;28;20144;-77
2021/06/05 04:11:16;;;;;;;11.88;5.47;;;21.00;59.30;;;;;;5052059;28;20029;-77
2021/06/05 04:13:42;;;;;;;13.18;6.70;;;21.10;59.20;;;;;;5051696;28;20412;-77
2021/06/05 04:16:08;;;;;;;21.20;9.85;;;21.30;59.00;;;;;;5050152;28;20141;-76
2021/06/05 04:18:37;;;;;;;23.17;8.43;;;21.30;58.90;;;;;;5052223;28;20021;-76
2021/06/05 04:21:04;;;;;;;12.40;5.65;;;21.40;58.80;;;;;;5052151;28;20025;-77
2021/06/05 04:23:31;;;;;;;14.70;5.40;;;21.60;58.60;;;;;;5052401;28;20029;-77
2021/06/05 04:25:57;;;;;;;12.40;5.18;;;21.80;58.40;;;;;;5051401;28;20357;-77
2021/06/05 04:28:25;;;;;;;10.32;6.22;;;22.10;58.00;;;;;;5051255;28;20095;-77
2021/06/05 04:30:50;;;;;;;13.43;5.43;;;22.50;57.40;;;;;;5051249;28;20028;-77
2021/06/05 04:33:18;;;;;;;15.63;5.95;;;23.20;57.20;;;;;;5051382;28;20100;-77
2021/06/05 04:35:44;;;;;;;12.95;5.03;;;24.10;55.70;;;;;;5051115;28;20024;-77
2021/06/05 04:38:11;;;;;;;9.77;5.07;;;25.20;54.40;;;;;;5049987;28;20079;-77
2021/06/05 04:40:39;;;;;;;14.30;5.60;;;26.70;53.00;;;;;;5051360;28;20064;-77
2021/06/05 04:43:05;;;;;;;8.60;4.57;;;28.00;50.50;;;;;;5050974;28;20024;-77
2021/06/05 04:45:32;;;;;;;12.18;5.22;;;28.90;48.60;;;;;;5051160;28;20108;-77
2021/06/05 04:47:58;;;;;;;12.15;4.70;;;30.00;47.10;;;;;;5051170;28;20414;-77
2021/06/05 04:50:30;;;;;;;9.48;4.50;;;30.90;45.50;;;;;;5050803;28;20044;-77
2021/06/05 04:52:56;;;;;;;13.10;4.80;;;31.80;44.10;;;;;;5054508;28;20040;-77
2021/06/05 04:55:22;;;;;;;10.35;4.80;;;33.00;43.20;;;;;;5055288;28;20039;-77
2021/06/05 04:57:51;;;;;;;21.40;5.28;;;34.10;41.50;;;;;;5055403;28;20021;-77
2021/06/05 05:00:21;;;;;;;8.05;4.60;;;34.50;39.90;;;;;;5054386;28;20394;-77
2021/06/05 05:02:46;;;;;;;12.68;4.80;;;34.30;39.10;;;;;;5054901;28;20013;-75
2021/06/05 05:05:13;;;;;;;9.82;4.18;;;34.30;38.90;;;;;;5054627;28;20104;-76
2021/06/05 05:07:38;;;;;;;14.48;4.72;;;34.40;39.30;;;;;;5054645;28;20491;-76
2021/06/05 05:10:05;;;;;;;20.98;4.80;;;34.50;38.20;;;;;;5055021;28;20025;-76
2021/06/05 05:12:31;;;;;;;14.07;4.78;;;34.70;38.00;;;;;;5054625;28;20025;-76
2021/06/05 05:14:57;;;;;;;15.75;4.80;;;34.90;37.90;;;;;;5054170;28;20021;-77
2021/06/05 05:17:23;;;;;;;11.85;5.30;;;34.90;37.40;;;;;;5054261;28;20025;-76
2021/06/05 05:19:48;;;;;;;17.02;4.80;;;35.30;37.20;;;;;;5053713;28;20142;-75
2021/06/05 05:22:14;;;;;;;10.60;3.70;;;35.80;36.90;;;;;;5054004;28;20126;-75
2021/06/05 05:24:40;;;;;;;11.32;4.00;;;36.70;36.20;;;;;;5054025;28;20479;-74
2021/06/05 05:27:07;;;;;;;10.60;3.60;;;37.70;35.70;;;;;;5053563;28;20068;-73
2021/06/05 05:29:32;;;;;;;5.85;3.42;;;38.90;34.90;;;;;;5053587;28;20041;-73
2021/06/05 05:31:58;;;;;;;12.82;4.90;;;39.90;33.80;;;;;;5053777;28;20036;-74
2021/06/05 05:34:24;;;;;;;9.35;4.78;;;40.50;33.00;;;;;;5053474;28;20459;-74
2021/06/05 05:36:50;;;;;;;9.75;3.70;;;40.90;32.50;;;;;;5051511;28;20044;-74
2021/06/05 05:39:18;;;;;;;9.93;4.03;;;41.10;32.30;;;;;;5053497;28;20471;-74
2021/06/05 05:41:45;;;;;;;7.03;3.70;;;41.30;31.80;;;;;;5051967;28;20335;-74
2021/06/05 05:44:10;;;;;;;10.07;3.88;;;41.60;31.80;;;;;;5052943;28;20025;-75
2021/06/05 05:46:37;;;;;;;10.02;4.10;;;42.20;31.50;;;;;;5051570;28;20031;-74
2021/06/05 05:49:06;;;;;;;8.77;3.72;;;42.70;30.70;;;;;;5052408;28;20103;-74
2021/06/05 05:51:32;;;;;;;8.93;4.50;;;43.20;30.40;;;;;;5052834;28;20100;-74
2021/06/05 05:53:58;;;;;;;9.13;4.40;;;43.60;30.20;;;;;;5052933;28;20107;-73
2021/06/05 05:56:27;;;;;;;10.82;4.95;;;43.90;29.80;;;;;;5050917;28;20534;-75
2021/06/05 05:58:55;;;;;;;19.50;5.25;;;44.20;29.80;;;;;;5051420;28;20037;-74
2021/06/05 06:01:23;;;;;;;7.40;4.95;;;44.60;29.60;;;;;;5049897;28;20392;-74
2021/06/05 06:03:51;;;;;;;8.57;4.88;;;45.00;29.40;;;;;;5051644;28;20028;-74
2021/06/05 06:06:18;;;;;;;4.22;3.78;;;45.30;29.00;;;;;;5052924;28;20025;-75
2021/06/05 06:08:43;;;;;;;13.98;4.40;;;45.30;28.70;;;;;;5052451;28;20031;-74
2021/06/05 06:11:11;;;;;;;10.63;4.68;;;45.40;28.50;;;;;;5052559;28;20127;-75
2021/06/05 06:13:38;;;;;;;12.00;7.40;;;45.40;28.40;;;;;;5052516;28;20022;-74
2021/06/05 06:16:08;;;;;;;13.25;4.38;;;45.50;28.50;;;;;;5052000;28;20104;-73
2021/06/05 06:18:39;;;;;;;12.85;3.70;;;45.70;28.40;;;;;;5052435;28;20355;-74
2021/06/05 06:21:08;;;;;;;14.70;3.85;;;46.10;28.20;;;;;;5052347;28;20025;-74
2021/06/05 06:23:36;;;;;;;9.13;3.67;;;46.50;28.10;;;;;;5051042;28;20231;-74
2021/06/05 06:26:06;;;;;;;10.50;3.65;;;46.80;28.00;;;;;;5051894;28;20032;-74
2021/06/05 06:28:34;;;;;;;10.07;3.72;;;47.10;27.90;;;;;;5051868;28;20044;-74
2021/06/05 06:31:01;;;;;;;6.20;3.50;;;47.30;27.80;;;;;;5050400;28;20025;-74
2021/06/05 06:33:28;;;;;;;7.50;3.10;;;47.30;27.60;;;;;;5052042;28;20021;-74
2021/06/05 06:35:55;;;;;;;7.32;3.10;;;47.10;27.20;;;;;;5052055;28;20035;-73
2021/06/05 06:38:26;;;;;;;8.82;4.55;;;46.50;26.90;;;;;;5051612;28;20048;-75
2021/06/05 06:40:52;;;;;;;7.88;3.75;;;45.70;26.90;;;;;;5050325;28;20040;-74
2021/06/05 06:43:20;;;;;;;5.97;3.80;;;45.10;27.30;;;;;;5049970;28;20061;-75
2021/06/05 06:45:47;;;;;;;7.00;4.20;;;44.80;27.60;;;;;;5049868;28;20051;-75
2021/06/05 06:48:12;;;;;;;10.40;3.75;;;44.60;27.60;;;;;;5048881;28;20083;-75
2021/06/05 06:50:38;;;;;;;5.75;3.00;;;44.60;27.70;;;;;;5050136;28;20028;-75
2021/06/05 06:53:04;;;;;;;11.10;3.80;;;44.50;27.60;;;;;;5050287;28;20060;-74
2021/06/05 06:55:30;;;;;;;9.90;3.58;;;44.40;27.70;;;;;;5048528;28;20021;-75
2021/06/05 06:57:56;;;;;;;9.25;3.22;;;44.20;27.60;;;;;;5049925;28;20032;-75
2021/06/05 07:00:27;;;;;;;5.05;3.47;;;43.90;27.60;;;;;;5049606;28;20036;-74
2021/06/05 07:02:53;;;;;;;9.77;3.20;;;43.70;27.70;;;;;;5048199;28;20416;-73
2021/06/05 07:05:20;;;;;;;7.97;4.18;;;43.40;27.80;;;;;;5049931;28;20032;-74
2021/06/05 07:07:46;;;;;;;9.60;3.38;;;43.00;27.90;;;;;;5049486;28;20035;-75
2021/06/05 07:10:14;;;;;;;9.13;3.63;;;42.70;28.30;;;;;;5049614;28;20021;-74
2021/06/05 07:12:40;;;;;;;6.72;3.58;;;42.40;28.30;;;;;;5049638;28;20782;-72
2021/06/05 07:15:06;;;;;;;6.18;3.45;;;42.00;28.30;;;;;;5049705;28;20120;-73
2021/06/05 07:17:33;;;;;;;6.18;3.28;;;41.70;28.40;;;;;;5049485;28;20375;-72
2021/06/05 07:19:59;;;;;;;5.68;3.50;;;41.50;28.60;;;;;;5049140;28;20021;-73
2021/06/05 07:22:25;;;;;;;9.35;3.17;;;41.50;28.80;;;;;;5049510;28;20462;-74
2021/06/05 07:24:51;;;;;;;8.35;3.13;;;41.50;28.70;;;;;;5049340;28;20025;-73
2021/06/05 07:27:16;;;;;;;5.25;3.22;;;41.40;28.70;;;;;;5049388;28;20093;-72
2021/06/05 07:29:42;;;;;;;10.95;4.75;;;41.20;28.70;;;;;;5053511;28;20682;-83
2021/06/05 07:32:09;;;;;;;10.73;4.38;;;40.80;28.80;;;;;;5048546;28;20056;-72
2021/06/05 07:34:35;;;;;;;6.82;3.75;;;40.30;28.80;;;;;;5049887;28;20013;-74
2021/06/05 07:37:10;;;;;;;7.03;3.50;;;39.90;28.90;;;;;;5048706;28;20048;-72
2021/06/05 07:39:36;;;;;;;6.80;3.30;;;39.50;29.10;;;;;;5048251;28;20024;-75
2021/06/05 07:42:03;;;;;;;5.68;3.72;;;39.00;29.40;;;;;;5049388;28;20028;-74
2021/06/05 07:44:30;;;;;;;12.15;3.60;;;38.60;29.70;;;;;;5047104;28;20021;-73
2021/06/05 07:46:58;;;;;;;8.32;3.80;;;38.30;30.00;;;;;;5049681;28;20100;-73
2021/06/05 07:49:30;;;;;;;9.40;3.50;;;38.10;30.20;;;;;;5049640;28;20017;-74
2021/06/05 07:51:57;;;;;;;13.48;3.55;;;37.80;30.30;;;;;;5048627;28;20021;-73
2021/06/05 07:54:23;;;;;;;6.05;3.00;;;37.50;30.40;;;;;;5049752;28;20040;-74
2021/06/05 07:56:50;;;;;;;6.55;4.00;;;37.20;30.60;;;;;;5048517;28;20033;-73
2021/06/05 07:59:23;;;;;;;11.05;3.58;;;36.90;30.70;;;;;;5050747;28;20506;-74
2021/06/05 08:01:50;;;;;;;7.20;2.95;;;36.60;31.30;;;;;;5050857;28;20083;-74
2021/06/05 08:04:17;;;;;;;6.90;3.53;;;36.40;31.50;;;;;;5050741;28;20483;-75
2021/06/05 08:06:44;;;;;;;7.95;4.00;;;36.20;31.70;;;;;;5049582;28;20029;-72
2021/06/05 08:09:10;;;;;;;13.77;3.65;;;36.00;31.80;;;;;;5050822;28;20033;-73
2021/06/05 08:11:36;;;;;;;10.93;3.50;;;35.80;31.90;;;;;;5050847;28;20053;-73
2021/06/05 08:14:03;;;;;;;6.60;3.70;;;35.60;32.10;;;;;;5050631;28;20375;-73
2021/06/05 08:16:29;;;;;;;10.05;3.10;;;35.70;32.60;;;;;;5049079;28;20368;-74
2021/06/05 08:18:55;;;;;;;8.93;3.92;;;35.70;32.20;;;;;;5051020;28;20021;-73
2021/06/05 08:21:21;;;;;;;15.02;3.00;;;35.60;32.20;;;;;;5049323;28;20021;-75
2021/06/05 08:23:48;;;;;;;17.02;3.80;;;35.40;32.20;;;;;;5049310;28;20033;-73
2021/06/05 08:26:17;;;;;;;12.90;3.80;;;35.30;32.40;;;;;;5051046;28;20064;-74
2021/06/05 08:28:42;;;;;;;10.70;3.80;;;35.10;32.50;;;;;;5054452;28;20045;-72
2021/06/05 08:31:11;;;;;;;12.38;4.10;;;35.10;32.80;;;;;;5054277;28;20036;-73
2021/06/05 08:33:38;;;;;;;11.63;4.07;;;35.00;32.80;;;;;;5054104;28;20021;-73
2021/06/05 08:36:05;;;;;;;6.97;3.17;;;34.90;33.00;;;;;;5054323;28;20064;-73
2021/06/05 08:38:31;;;;;;;16.23;5.95;;;34.90;33.00;;;;;;5054058;28;20017;-72
2021/06/05 08:41:18;;;;;;;9.98;3.88;;;34.80;32.70;;;;;;5052540;28;20351;-73
2021/06/05 08:43:51;;;;;;;10.60;4.15;;;34.70;32.70;;;;;;5053077;28;20033;-74
2021/06/05 08:46:23;;;;;;;9.20;3.60;;;34.80;32.80;;;;;;5053654;28;20033;-73
2021/06/05 08:48:50;;;;;;;13.35;4.47;;;34.60;32.60;;;;;;5054480;28;20036;-74
2021/06/05 08:51:40;;;;;;;7.85;4.30;;;34.40;32.80;;;;;;5053999;28;20036;-81
2021/06/05 08:54:24;;;;;;;14.40;3.70;;;34.20;33.00;;;;;;5054507;28;20044;-82
2021/06/05 08:56:50;;;;;;;11.52;4.35;;;33.90;32.80;;;;;;5053282;28;20028;-82
2021/06/05 08:59:19;;;;;;;4.97;2.63;;;33.90;32.90;;;;;;5054683;28;20132;-82
2021/06/05 09:01:49;;;;;;;4.45;2.63;;;34.00;33.10;;;;;;5054267;28;20032;-82
2021/06/05 09:04:20;;;;;;;6.22;2.63;;;33.90;32.50;;;;;;5054340;28;20108;-82
2021/06/05 09:07:05;;;;;;;10.98;3.13;;;33.80;32.50;;;;;;5054259;28;20466;-83
2021/06/05 09:09:33;;;;;;;12.88;3.50;;;33.60;32.50;;;;;;5054268;28;20475;-83
2021/06/05 09:12:01;;;;;;;4.15;3.30;;;33.60;32.60;;;;;;5053006;28;20441;-83
2021/06/05 09:14:26;;;;;;;6.75;2.97;;;33.70;32.10;;;;;;5053844;28;20021;-73
2021/06/05 09:16:53;;;;;;;5.95;2.58;;;33.60;32.00;;;;;;5053735;28;20021;-73
2021/06/05 09:19:35;;;;;;;14.98;3.35;;;33.60;31.80;;;;;;5053315;28;20050;-72
2021/06/05 09:22:07;;;;;;;6.88;3.10;;;33.40;32.20;;;;;;5053718;28;20025;-75
2021/06/05 09:24:49;;;;;;;9.23;2.78;;;33.30;32.50;;;;;;5053187;28;20017;-74
2021/06/05 09:27:18;;;;;;;7.85;3.50;;;33.20;32.60;;;;;;5053249;28;20052;-73
2021/06/05 09:29:47;;;;;;;7.28;3.55;;;32.80;32.90;;;;;;5053247;28;20491;-74
2021/06/05 09:32:15;;;;;;;19.30;6.95;;;32.50;33.30;;;;;;5053544;28;20029;-73
2021/06/05 09:34:45;;;;;;;14.10;7.10;;;32.10;33.70;;;;;;5053303;28;20025;-72
2021/06/05 09:37:41;;;;;;;17.80;10.23;;;31.70;34.40;;;;;;5053022;28;20037;-73
2021/06/05 09:40:20;;;;;;;15.27;8.55;;;31.40;34.90;;;;;;5053046;28;20530;-72
2021/06/05 09:42:54;;;;;;;5.00;3.00;;;31.40;34.90;;;;;;5053441;28;20033;-73
2021/06/05 09:45:33;;;;;;;12.00;4.78;;;31.30;35.00;;;;;;5053449;28;20096;-74
2021/06/05 09:48:24;;;;;;;6.53;3.65;;;31.20;35.10;;;;;;5053424;28;20463;-73
2021/06/05 09:50:52;;;;;;;15.15;5.60;;;31.10;35.50;;;;;;5052317;28;20143;-73
2021/06/05 09:53:39;;;;;;;32.25;20.30;;;31.00;35.80;;;;;;5053338;28;20416;-72
2021/06/05 09:56:10;;;;;;;70.47;52.03;;;30.90;35.70;;;;;;5052558;28;20029;-73
2021/06/05 09:58:43;;;;;;;11.27;6.93;;;30.80;35.80;;;;;;5052528;28;20388;-72
2021/06/05 10:01:15;;;;;;;12.95;4.82;;;30.80;36.00;;;;;;5052816;28;20115;-75
2021/06/05 10:03:41;;;;;;;9.57;4.20;;;30.90;36.70;;;;;;5052815;28;20130;-73
2021/06/05 10:06:40;;;;;;;10.35;3.88;;;31.20;35.90;;;;;;5052614;28;20043;-72
2021/06/05 10:09:24;;;;;;;8.10;3.92;;;31.40;35.60;;;;;;5052551;28;20017;-73
2021/06/05 10:12:07;;;;;;;5.72;2.80;;;31.30;35.40;;;;;;5051391;28;20021;-72
2021/06/05 10:14:44;;;;;;;9.18;3.53;;;31.20;35.30;;;;;;5051754;28;20486;-72
2021/06/05 10:17:20;;;;;;;12.65;4.25;;;31.30;35.20;;;;;;5052323;28;20057;-73
2021/06/05 10:19:59;;;;;;;8.63;3.15;;;31.10;35.50;;;;;;5052472;28;20054;-73
2021/06/05 10:22:26;;;;;;;6.63;3.60;;;31.00;36.00;;;;;;5052650;28;20361;-72
2021/06/05 10:24:58;;;;;;;22.23;13.35;;;31.00;36.00;;;;;;5052996;28;20437;-73
2021/06/05 10:27:30;;;;;;;190.13;132.70;;;30.90;36.30;;;;;;5052563;28;20029;-75
2021/06/05 10:30:28;;;;;;;;;;;30.80;36.10;;;;;;5052751;28;20056;-74
2021/06/05 10:32:56;;;;;;;25.20;17.27;;;30.70;36.10;;;;;;5040336;28;19924;-73
2021/06/05 10:35:31;;;;;;;5.03;3.05;;;30.70;35.90;;;;;;5052476;28;20025;-74
2021/06/05 10:38:33;;;;;;;9.57;5.68;;;30.50;35.00;;;;;;5052315;28;20459;-75
2021/06/05 10:40:59;;;;;;;31.10;27.42;;;30.30;35.10;;;;;;5039310;28;20112;-73
2021/06/05 10:43:25;;;;;;;14.18;4.15;;;30.20;35.60;;;;;;5052171;28;20151;-74
2021/06/05 10:45:57;;;;;;;61.78;44.38;;;30.20;35.60;;;;;;5050844;28;20029;-75
2021/06/05 10:48:33;;;;;;;31.63;21.52;;;30.20;35.70;;;;;;5051043;28;20025;-75
2021/06/05 10:50:59;;;;;;;16.20;8.27;;;30.00;35.80;;;;;;5051955;28;20495;-73
2021/06/05 10:53:38;;;;;;;14.18;6.47;;;29.90;35.90;;;;;;5052097;28;20067;-73
2021/06/05 10:56:14;;;;;;;26.50;17.70;;;29.80;35.70;;;;;;5050635;28;20043;-75
2021/06/05 10:58:47;;;;;;;7.90;4.43;;;29.70;36.10;;;;;;5052242;28;20769;-73
2021/06/05 11:01:39;;;;;;;12.32;5.82;;;29.60;36.10;;;;;;5051927;28;20501;-75
2021/06/05 11:04:07;;;;;;;26.63;12.95;;;29.70;36.50;;;;;;5051569;28;20036;-75
2021/06/05 11:06:45;;;;;;;15.38;4.63;;;29.70;36.90;;;;;;5051436;28;20040;-74
2021/06/05 11:09:32;;;;;;;9.73;4.45;;;29.70;36.70;;;;;;5051790;28;20052;-75
2021/06/05 11:12:13;;;;;;;9.45;6.70;;;29.50;36.80;;;;;;5050402;28;20141;-74
2021/06/05 11:14:45;;;;;;;16.17;9.93;;;29.50;37.10;;;;;;5051866;28;20134;-74
2021/06/05 11:17:34;;;;;;;12.77;8.02;;;29.50;37.50;;;;;;5050733;28;20086;-74
2021/06/05 11:20:04;;;;;;;17.95;11.68;;;29.50;37.40;;;;;;5051322;28;20021;-74
2021/06/05 11:22:50;;;;;;;7.55;3.13;;;29.70;37.40;;;;;;5051363;28;20025;-73
2021/06/05 11:25:15;;;;;;;10.63;3.78;;;29.80;37.00;;;;;;5039847;28;20122;-74
2021/06/05 11:27:41;;;;;;;13.52;4.88;;;29.80;36.90;;;;;;5051341;28;20063;-75
2021/06/05 11:30:21;;;;;;;7.60;3.53;;;29.90;36.90;;;;;;5051495;28;20079;-75
2021/06/05 11:32:51;;;;;;;7.80;3.13;;;29.90;36.50;;;;;;5051544;28;20024;-83
2021/06/05 11:35:32;;;;;;;8.70;2.70;;;29.80;36.20;;;;;;5052629;28;20083;-83
2021/06/05 11:38:00;;;;;;;7.83;3.60;;;29.60;35.90;;;;;;5053266;28;20029;-82
2021/06/05 11:40:51;;;;;;;3.70;3.03;;;29.30;36.00;;;;;;5051923;28;20131;-82
2021/06/05 11:43:28;;;;;;;9.57;3.40;;;29.10;36.60;;;;;;5051925;28;20022;-74
2021/06/05 11:46:16;;;;;;;7.82;2.70;;;29.00;36.90;;;;;;5050557;28;20098;-74
2021/06/05 11:48:48;;;;;;;7.65;3.20;;;28.90;36.80;;;;;;5050633;28;20514;-75
2021/06/05 11:51:19;;;;;;;;;;;28.80;37.00;;;;;;5049540;28;20471;-75
2021/06/05 11:53:47;;;;;;;4.88;2.90;;;28.80;37.00;;;;;;5050726;28;19956;-74
2021/06/05 11:56:13;;;;;;;5.07;2.78;;;28.90;37.40;;;;;;5049289;28;20029;-75
2021/06/05 11:58:39;;;;;;;10.65;7.68;;;28.90;36.20;;;;;;5050851;28;20021;-76
2021/06/05 12:01:14;;;;;;;12.07;7.55;;;28.80;36.10;;;;;;5050191;28;20041;-74
2021/06/05 12:03:48;;;;;;;6.35;3.47;;;28.80;37.10;;;;;;5048359;28;20079;-74
2021/06/05 12:06:18;;;;;;;2.90;2.60;;;28.80;36.40;;;;;;5050944;28;20100;-73
2021/06/05 12:08:46;;;;;;;5.78;2.70;;;28.80;36.20;;;;;;5050326;28;20051;-75
2021/06/05 12:11:32;;;;;;;5.68;2.65;;;28.80;36.20;;;;;;5050972;28;20025;-75
2021/06/05 12:14:47;;;;;;;6.78;2.75;;;28.80;36.20;;;;;;5050669;28;20025;-76
2021/06/05 12:17:28;;;;;;;6.35;3.00;;;28.90;36.50;;;;;;5047513;28;20047;-75
2021/06/05 12:20:19;;;;;;;9.75;3.08;;;29.00;36.80;;;;;;5050771;28;20021;-75
2021/06/05 12:22:48;;;;;;;4.63;2.42;;;29.20;37.00;;;;;;5051214;28;20032;-76
2021/06/05 12:25:38;;;;;;;5.53;2.85;;;29.20;36.60;;;;;;5051036;28;20123;-75
2021/06/05 12:28:23;;;;;;;5.07;2.63;;;29.10;36.30;;;;;;5050825;28;20088;-76
2021/06/05 12:30:51;;;;;;;16.02;2.70;;;29.00;36.40;;;;;;5051390;28;20076;-76
2021/06/05 12:33:30;;;;;;;10.25;2.88;;;29.00;36.60;;;;;;5051610;28;20029;-75
2021/06/05 12:35:56;;;;;;;3.20;2.42;;;28.90;36.90;;;;;;5050915;28;20021;-76
2021/06/05 12:38:33;;;;;;;5.40;2.17;;;28.90;36.80;;;;;;5048297;28;20140;-75
2021/06/05 12:41:01;;;;;;;7.70;2.25;;;28.80;36.60;;;;;;5050315;28;20476;-75
2021/06/05 12:43:32;;;;;;;7.07;2.65;;;28.60;36.30;;;;;;5050421;28;20021;-75
2021/06/05 12:46:03;;;;;;;7.78;2.63;;;28.40;36.40;;;;;;5050225;28;20025;-75
2021/06/05 12:48:29;;;;;;;8.10;2.20;;;28.40;36.30;;;;;;5050194;28;20055;-74
2021/06/05 12:50:58;;;;;;;8.25;2.70;;;28.30;36.50;;;;;;5049697;28;20052;-76
2021/06/05 12:53:26;;;;;;;7.28;3.05;;;28.30;36.80;;;;;;5048221;28;20029;-76
2021/06/05 12:55:55;;;;;;;10.35;2.78;;;28.20;37.10;;;;;;5050255;28;20439;-75